Time;durP1;ratioP1;P1;durP2;ratioP2;P2;SDS_P1;SDS_P2;PMS_P1;PMS_P2;Temp;Humidity;BMP_temperature;BMP_pressure;BME280_temperature;BME280_humidity;BME280_pressure;Samples;Min_cycle;Max_cycle;Signal;HPM_P1;HPM_P2
2022/07/29 00:01:16;;;;;;;;;6.00;6.00;;;;;24.83;30.48;101072.50;4899091;29;45616;-58
2022/07/29 00:03:41;;;;;;;;;7.50;6.00;;;;;24.82;30.73;101064.66;4901288;29;47011;-58
2022/07/29 00:06:07;;;;;;;;;6.00;5.50;;;;;24.79;30.34;101063.09;4901945;29;45344;-58
2022/07/29 00:08:33;;;;;;;;;5.50;5.00;;;;;24.79;30.35;101067.53;4902073;28;45611;-58
2022/07/29 00:10:58;;;;;;;;;5.25;5.25;;;;;24.78;30.90;101063.16;4901678;28;45461;-58
2022/07/29 00:13:23;;;;;;;;;6.25;6.25;;;;;24.78;30.94;101055.22;4902001;29;46367;-57
2022/07/29 00:15:49;;;;;;;;;7.25;6.00;;;;;24.76;30.38;101050.03;4901901;29;45913;-57
2022/07/29 00:18:14;;;;;;;;;5.75;5.75;;;;;24.75;31.01;101042.19;4901852;29;45320;-57
2022/07/29 00:20:39;;;;;;;;;4.75;4.75;;;;;24.73;30.93;101049.41;4902416;29;45561;-58
2022/07/29 00:23:05;;;;;;;;;7.00;5.50;;;;;24.74;31.04;101046.63;4901428;29;49157;-57
2022/07/29 00:25:30;;;;;;;;;5.25;5.25;;;;;24.73;30.93;101038.81;4901992;29;45320;-57
2022/07/29 00:27:55;;;;;;;;;9.00;7.00;;;;;24.73;30.62;101041.47;4901869;29;45408;-58
2022/07/29 00:30:21;;;;;;;;;6.00;6.00;;;;;24.72;30.85;101029.16;4902071;29;45432;-57
2022/07/29 00:32:46;;;;;;;;;5.25;5.25;;;;;24.72;30.99;101037.94;4901622;29;46195;-57
2022/07/29 00:37:55;;;;;;;;;7.00;6.25;;;;;24.70;31.31;101023.94;4901590;29;45383;-58
2022/07/29 00:40:21;;;;;;;;;6.00;6.00;;;;;24.70;31.36;101023.94;4902036;29;45561;-58
2022/07/29 00:42:48;;;;;;;;;8.00;6.00;;;;;24.70;30.75;101030.09;4901603;29;46221;-57
2022/07/29 00:45:14;;;;;;;;;10.75;7.00;;;;;24.70;31.25;101024.81;4900473;29;45844;-58
2022/07/29 00:47:40;;;;;;;;;7.00;6.75;;;;;24.69;31.34;101022.28;4901998;29;45361;-58
2022/07/29 00:50:07;;;;;;;;;6.25;6.25;;;;;24.70;31.03;101029.25;4900278;29;45574;-58
2022/07/29 00:52:35;;;;;;;;;6.50;5.00;;;;;24.69;31.21;101027.56;4901339;29;47289;-58
2022/07/29 00:55:02;;;;;;;;;6.00;6.00;;;;;24.68;30.93;101032.00;4901251;29;45776;-57
2022/07/29 00:57:27;;;;;;;;;8.00;6.25;;;;;24.69;31.37;101028.41;4901658;29;45351;-58
2022/07/29 00:59:52;;;;;;;;;6.50;6.00;;;;;24.69;31.06;101033.72;4901627;29;45598;-58
2022/07/29 01:02:18;;;;;;;;;6.25;6.25;;;;;24.68;31.22;101026.72;4899700;28;47257;-58
2022/07/29 01:04:43;;;;;;;;;7.00;6.50;;;;;24.66;31.42;101023.28;4901596;29;46521;-58
2022/07/29 01:07:09;;;;;;;;;6.50;6.50;;;;;24.64;31.21;101019.88;4901187;29;45707;-58
2022/07/29 01:09:36;;;;;;;;;8.00;8.00;;;;;24.63;31.74;101018.22;4901650;29;45254;-57
2022/07/29 01:12:03;;;;;;;;;10.50;9.00;;;;;24.63;31.24;101017.34;4900624;29;46207;-57
2022/07/29 01:14:29;;;;;;;;;8.50;8.50;;;;;24.63;31.32;101020.88;4901146;29;45595;-57
2022/07/29 01:17:02;;;;;;;;;8.00;6.00;;;;;24.64;31.28;101019.88;4901350;29;45303;-57
2022/07/29 01:19:59;;;;;;;;;8.00;5.00;;;;;24.63;31.06;101020.00;4901284;29;45409;-58
2022/07/29 01:22:31;;;;;;;;;6.50;5.50;;;;;24.63;31.31;101020.88;4901085;29;45423;-57
2022/07/29 01:25:02;;;;;;;;;5.75;5.75;;;;;24.63;31.36;101017.34;4900866;29;45340;-58
2022/07/29 01:27:39;;;;;;;;;7.25;7.00;;;;;24.62;31.83;101027.13;4901211;28;45279;-58
2022/07/29 01:30:05;;;;;;;;;2.75;2.75;;;;;24.60;31.33;101028.16;4900848;29;45390;-57
2022/07/29 01:32:35;;;;;;;;;8.50;6.00;;;;;24.57;31.96;101023.94;4900648;29;46654;-57
2022/07/29 01:35:20;;;;;;;;;7.75;6.00;;;;;24.55;31.98;101032.00;4899405;29;45690;-56
2022/07/29 01:37:49;;;;;;;;;9.00;6.50;;;;;24.54;31.44;101034.75;4901059;29;45397;-57
2022/07/29 01:40:24;;;;;;;;;6.25;6.00;;;;;24.51;32.18;101032.31;4901123;28;45550;-57
2022/07/29 01:42:55;;;;;;;;;6.25;5.25;;;;;24.49;31.55;101034.22;4900697;29;45467;-58
2022/07/29 01:45:40;;;;;;;;;7.00;6.00;;;;;24.48;32.05;101035.19;4899610;29;46044;-57
2022/07/29 01:48:06;;;;;;;;;8.00;7.00;;;;;24.45;31.75;101030.09;4900658;29;45462;-58
2022/07/29 01:50:40;;;;;;;;;8.25;7.25;;;;;24.45;32.19;101030.09;4899668;29;45573;-58
2022/07/29 01:53:09;;;;;;;;;10.50;8.50;;;;;24.44;31.78;101036.34;4900427;29;46907;-58
2022/07/29 01:55:38;;;;;;;;;10.50;7.50;;;;;24.43;31.88;101037.28;4900611;29;45785;-58
2022/07/29 01:58:05;;;;;;;;;7.00;7.00;;;;;24.41;32.31;101042.69;4900383;29;45333;-58
2022/07/29 02:00:33;;;;;;;;;9.25;8.00;;;;;24.40;32.23;101038.34;4900881;29;45456;-57
2022/07/29 02:03:02;;;;;;;;;7.00;7.00;;;;;24.40;32.33;101043.66;4900121;29;45685;-59
2022/07/29 02:05:30;;;;;;;;;7.25;6.00;;;;;24.39;32.11;101029.56;4900410;29;45360;-58
2022/07/29 02:07:58;;;;;;;;;5.75;4.75;;;;;24.39;32.25;101037.50;4900584;29;45459;-59
2022/07/29 02:10:26;;;;;;;;;7.25;5.00;;;;;24.38;32.06;101034.94;4900642;28;45242;-58
2022/07/29 02:12:54;;;;;;;;;6.00;6.00;;;;;24.35;32.13;101035.19;4900009;29;46643;-58
2022/07/29 02:15:22;;;;;;;;;5.00;5.00;;;;;24.35;32.31;101029.88;4900044;29;45866;-58
2022/07/29 02:17:58;;;;;;;;;7.00;7.00;;;;;24.35;31.94;101032.53;4900588;29;45372;-59
2022/07/29 02:20:26;;;;;;;;;9.00;6.00;;;;;24.33;32.62;101032.63;4900654;29;45368;-58
2022/07/29 02:22:52;;;;;;;;;8.00;5.25;;;;;24.35;32.38;101040.47;4900168;29;46466;-58
2022/07/29 02:25:18;;;;;;;;;7.00;7.00;;;;;24.35;32.61;101036.03;4898042;29;45959;-58
2022/07/29 02:27:45;;;;;;;;;5.75;5.75;;;;;24.36;32.50;101032.41;4900441;29;45462;-57
2022/07/29 02:30:12;;;;;;;;;8.00;7.25;;;;;24.35;32.24;101036.03;4900444;28;45614;-58
2022/07/29 02:32:41;;;;;;;;;5.00;5.00;;;;;24.33;32.38;101040.56;4899929;29;45321;-58
2022/07/29 02:35:09;;;;;;;;;7.25;6.50;;;;;24.33;32.01;101037.91;4898547;29;45372;-58
2022/07/29 02:37:36;;;;;;;;;6.75;6.75;;;;;24.30;32.69;101038.16;4899944;29;45456;-58
2022/07/29 02:40:03;;;;;;;;;7.25;6.25;;;;;24.29;32.39;101036.47;4899908;29;45308;-58
2022/07/29 02:42:30;;;;;;;;;8.00;5.25;;;;;24.30;32.32;101035.50;4899787;29;46973;-58
2022/07/29 02:44:56;;;;;;;;;6.50;5.75;;;;;24.28;32.19;101039.19;4899696;28;45848;-58
2022/07/29 02:47:33;;;;;;;;;5.50;5.50;;;;;24.29;32.17;101040.88;4900142;29;45316;-58
2022/07/29 02:50:14;;;;;;;;;6.25;6.25;;;;;24.29;32.32;101044.41;4899805;29;45446;-58
2022/07/29 02:53:05;;;;;;;;;5.00;5.00;;;;;24.27;32.61;101042.78;4898168;29;48360;-58
2022/07/29 02:55:36;;;;;;;;;9.00;8.00;;;;;24.28;32.33;101040.06;4899826;29;45285;-57
2022/07/29 02:58:07;;;;;;;;;8.00;8.00;;;;;24.25;32.83;101045.56;4899552;29;45421;-58
2022/07/29 03:00:37;;;;;;;;;4.25;3.75;;;;;24.26;32.52;101049.91;4899826;29;45431;-58
2022/07/29 03:03:06;;;;;;;;;7.75;7.75;;;;;24.24;32.36;101046.50;4899272;29;46210;-58
2022/07/29 03:05:32;;;;;;;;;8.75;7.75;;;;;24.23;32.41;101050.09;4899473;29;45365;-58
2022/07/29 03:08:02;;;;;;;;;6.00;6.00;;;;;24.25;32.91;101042.91;4899411;29;45462;-58
2022/07/29 03:10:28;;;;;;;;;6.00;5.00;;;;;24.23;32.94;101047.44;4899688;29;45521;-58
2022/07/29 03:12:56;;;;;;;;;2.75;0.50;;;;;24.20;32.92;101050.28;4898048;29;47182;-58
2022/07/29 03:15:23;;;;;;;;;7.00;5.75;;;;;24.23;32.49;101053.63;4899432;29;45356;-58
2022/07/29 03:17:50;;;;;;;;;8.25;6.00;;;;;24.24;32.36;101057.97;4899416;29;45318;-58
2022/07/29 03:20:17;;;;;;;;;6.50;6.50;;;;;24.26;32.93;101063.13;4899753;29;45681;-58
2022/07/29 03:22:46;;;;;;;;;8.00;6.00;;;;;24.27;32.67;101059.53;4899676;29;45702;-58
2022/07/29 03:25:16;;;;;;;;;7.00;7.00;;;;;24.30;32.54;101061.13;4899471;29;45840;-58
2022/07/29 03:27:43;;;;;;;;;6.25;6.25;;;;;24.28;32.53;101061.25;4899755;29;45386;-58
2022/07/29 03:30:09;;;;;;;;;6.00;6.00;;;;;24.28;32.58;101055.94;4899108;29;45618;-58
2022/07/29 03:32:36;;;;;;;;;6.25;6.25;;;;;24.26;32.70;101054.34;4899014;29;46551;-58
2022/07/29 03:35:02;;;;;;;;;7.25;6.25;;;;;24.25;32.81;101056.16;4898858;29;45412;-57
2022/07/29 03:37:28;;;;;;;;;8.25;7.00;;;;;24.24;32.42;101051.78;4898317;29;45392;-59
2022/07/29 03:39:57;;;;;;;;;8.50;7.00;;;;;24.24;32.49;101055.31;4898220;29;45311;-59
2022/07/29 03:42:25;;;;;;;;;6.00;6.00;;;;;24.24;32.85;101057.09;4897871;29;45419;-58
2022/07/29 03:44:52;;;;;;;;;9.25;8.25;;;;;24.23;32.91;101053.63;4899223;29;45795;-58
2022/07/29 03:47:22;;;;;;;;;8.50;8.00;;;;;24.24;32.97;101054.44;4898951;29;45246;-58
2022/07/29 03:49:50;;;;;;;;;6.75;6.75;;;;;24.24;32.81;101052.66;4899513;29;45635;-58
2022/07/29 03:52:16;;;;;;;;;8.00;6.25;;;;;24.24;32.62;101057.97;4898980;29;46677;-58
2022/07/29 03:54:41;;;;;;;;;8.25;7.00;;;;;24.24;32.80;101060.59;4899228;29;45459;-58
2022/07/29 03:57:07;;;;;;;;;9.00;9.00;;;;;24.24;33.30;101054.44;4898918;29;45309;-58
2022/07/29 03:59:33;;;;;;;;;8.00;7.00;;;;;24.25;33.08;101061.44;4899197;29;45326;-59
2022/07/29 04:02:00;;;;;;;;;8.25;6.00;;;;;24.26;32.90;101067.56;4898617;29;45397;-58
2022/07/29 04:04:26;;;;;;;;;7.25;6.75;;;;;24.26;32.96;101068.44;4898976;29;46308;-58
2022/07/29 04:06:51;;;;;;;;;6.50;6.50;;;;;24.25;33.37;101066.75;4899031;29;45336;-58
2022/07/29 04:09:16;;;;;;;;;8.75;7.25;;;;;24.24;33.15;101065.91;4898788;29;45568;-58
2022/07/29 04:11:42;;;;;;;;;6.75;6.75;;;;;24.26;33.00;101078.16;4898726;29;49325;-58
2022/07/29 04:14:08;;;;;;;;;6.50;6.50;;;;;24.23;33.24;101079.22;4898702;29;45399;-59
2022/07/29 04:16:33;;;;;;;;;8.00;7.00;;;;;24.22;32.92;101077.53;4898919;29;45399;-58
2022/07/29 04:18:59;;;;;;;;;7.50;7.50;;;;;24.22;33.17;101069.59;4898673;29;45582;-58
2022/07/29 04:21:24;;;;;;;;;8.00;7.25;;;;;24.23;33.44;101073.94;4898643;29;45462;-58
2022/07/29 04:23:50;;;;;;;;;8.25;7.75;;;;;24.23;33.59;101074.81;4898569;29;45399;-58
2022/07/29 04:26:16;;;;;;;;;8.75;8.00;;;;;24.23;33.13;101079.22;4898842;29;45400;-58
2022/07/29 04:28:42;;;;;;;;;8.50;7.00;;;;;24.22;33.17;101072.22;4899221;29;45532;-57
2022/07/29 04:31:08;;;;;;;;;10.75;7.50;;;;;24.19;33.64;101073.31;4896920;29;47220;-58
2022/07/29 04:33:34;;;;;;;;;11.75;9.00;;;;;24.19;33.39;101073.31;4898432;29;45337;-58
2022/07/29 04:35:59;;;;;;;;;8.00;7.25;;;;;24.21;33.49;101081.13;4898459;29;45654;-58
2022/07/29 04:38:25;;;;;;;;;7.00;6.25;;;;;24.21;33.55;101075.84;4898656;29;45206;-58
2022/07/29 04:40:50;;;;;;;;;11.25;8.50;;;;;24.18;33.45;101079.53;4898405;29;45335;-58
2022/07/29 04:43:16;;;;;;;;;8.00;8.00;;;;;24.21;33.94;101084.66;4898532;29;45246;-58
2022/07/29 04:45:42;;;;;;;;;9.00;9.00;;;;;24.20;33.16;101084.72;4898812;29;45289;-58
2022/07/29 04:48:08;;;;;;;;;7.50;7.50;;;;;24.21;33.38;101086.44;4897042;29;45671;-58
2022/07/29 04:50:33;;;;;;;;;8.00;6.00;;;;;24.21;33.95;101091.72;4901370;29;46314;-58
2022/07/29 04:52:59;;;;;;;;;8.25;7.25;;;;;24.20;33.59;101084.72;4901059;29;45269;-58
2022/07/29 04:55:25;;;;;;;;;6.00;6.00;;;;;24.19;33.21;101083.88;4901674;28;45493;-57
2022/07/29 04:57:50;;;;;;;;;7.50;7.50;;;;;24.19;33.11;101083.06;4901769;29;45466;-58
2022/07/29 05:00:16;;;;;;;;;7.50;7.50;;;;;24.18;33.32;101090.13;4901509;29;45445;-58
2022/07/29 05:02:42;;;;;;;;;8.75;7.50;;;;;24.17;33.51;101084.94;4901654;29;45386;-58
2022/07/29 05:05:07;;;;;;;;;8.00;6.50;;;;;24.18;33.87;101086.66;4901351;29;45562;-58
2022/07/29 05:07:33;;;;;;;;;7.25;6.00;;;;;24.16;33.38;101084.09;4901577;29;45356;-58
2022/07/29 05:09:58;;;;;;;;;9.75;8.00;;;;;24.18;33.18;101084.00;4899755;29;47561;-58
2022/07/29 05:12:25;;;;;;;;;8.25;7.00;;;;;24.19;33.34;101083.06;4900963;29;45210;-58
2022/07/29 05:14:51;;;;;;;;;8.75;7.00;;;;;24.19;33.55;101089.19;4901383;29;45281;-58
2022/07/29 05:17:16;;;;;;;;;9.75;7.00;;;;;24.20;33.44;101087.38;4901463;29;45536;-58
2022/07/29 05:19:41;;;;;;;;;8.50;6.50;;;;;24.23;33.42;101087.19;4901348;29;47185;-58
2022/07/29 05:22:07;;;;;;;;;6.00;6.00;;;;;24.23;33.46;101088.03;4900952;28;45440;-59
2022/07/29 05:24:32;;;;;;;;;7.75;6.75;;;;;24.27;33.41;101087.81;4901163;28;45360;-57
2022/07/29 05:26:57;;;;;;;;;8.50;7.00;;;;;24.26;33.61;101086.97;4901056;29;45449;-58
2022/07/29 05:29:23;;;;;;;;;4.25;4.25;;;;;24.30;33.53;101087.63;4900943;29;45850;-58
2022/07/29 05:31:48;;;;;;;;;7.25;7.25;;;;;24.31;33.50;101090.16;4900866;28;45368;-58
2022/07/29 05:34:13;;;;;;;;;9.00;7.75;;;;;24.33;33.58;101090.91;4900972;29;45447;-59
2022/07/29 05:36:39;;;;;;;;;11.75;7.00;;;;;24.34;33.57;101097.06;4901244;29;45655;-58
2022/07/29 05:39:04;;;;;;;;;8.75;8.75;;;;;24.34;33.89;101084.66;4900529;29;45398;-58
2022/07/29 05:41:32;;;;;;;;;8.75;7.75;;;;;24.36;33.90;101095.16;4900735;29;45404;-58
2022/07/29 05:43:58;;;;;;;;;8.25;8.25;;;;;24.37;34.10;101097.69;4900613;29;45257;-58
2022/07/29 05:46:23;;;;;;;;;12.25;6.25;;;;;24.39;33.63;101094.94;4901080;29;45244;-58
2022/07/29 05:48:49;;;;;;;;;9.50;7.75;;;;;24.39;34.31;101100.22;4900640;29;46546;-58
2022/07/29 05:51:14;;;;;;;;;8.25;7.25;;;;;24.41;33.76;101100.16;4900686;29;45288;-57
2022/07/29 05:53:39;;;;;;;;;9.00;6.75;;;;;24.41;34.10;101103.63;4900801;28;45341;-57
2022/07/29 05:56:05;;;;;;;;;11.50;9.00;;;;;24.42;34.28;101109.78;4900620;29;45635;-58
2022/07/29 05:58:31;;;;;;;;;8.50;8.50;;;;;24.42;33.86;101109.78;4899317;29;46033;-58
2022/07/29 06:01:00;;;;;;;;;11.00;8.00;;;;;24.42;34.25;101109.78;4899436;29;45202;-58
2022/07/29 06:03:25;;;;;;;;;7.00;7.00;;;;;24.43;34.37;101116.75;4900718;29;45344;-58
2022/07/29 06:05:51;;;;;;;;;8.50;8.50;;;;;24.42;33.69;101115.09;4900639;29;45341;-58
2022/07/29 06:08:17;;;;;;;;;8.25;8.25;;;;;24.42;34.31;101115.09;4899012;29;45903;-58
2022/07/29 06:10:43;;;;;;;;;8.75;8.75;;;;;24.44;34.06;101121.09;4900523;29;45457;-59
2022/07/29 06:13:08;;;;;;;;;6.25;6.25;;;;;24.44;33.96;101124.63;4900348;29;45349;-58
2022/07/29 06:15:33;;;;;;;;;7.00;7.00;;;;;24.45;34.21;101125.47;4900678;29;45510;-59
2022/07/29 06:17:59;;;;;;;;;6.75;6.75;;;;;24.45;33.84;101128.09;4900040;29;46718;-57
2022/07/29 06:20:24;;;;;;;;;9.00;8.00;;;;;24.46;33.66;101128.03;4900140;28;45380;-59
2022/07/29 06:22:49;;;;;;;;;6.75;6.75;;;;;24.48;34.22;101130.56;4900380;29;45277;-60
2022/07/29 06:25:16;;;;;;;;;6.25;6.25;;;;;24.48;33.76;101127.91;4899186;29;45443;-59
2022/07/29 06:27:41;;;;;;;;;9.25;7.50;;;;;24.47;33.72;101129.72;4900022;29;46445;-58
2022/07/29 06:30:07;;;;;;;;;7.25;7.25;;;;;24.48;33.91;101127.91;4899663;29;45325;-57
2022/07/29 06:32:33;;;;;;;;;11.75;9.75;;;;;24.48;33.94;101133.22;4899934;29;45235;-61
2022/07/29 06:34:58;;;;;;;;;11.50;9.75;;;;;24.49;34.06;101125.16;4899909;28;45423;-60
2022/07/29 06:37:24;;;;;;;;;8.00;7.75;;;;;24.51;34.03;101133.00;4899811;29;46248;-60
2022/07/29 06:40:59;;;;;;;;;7.00;7.00;;;;;24.50;33.64;101133.97;4899948;29;45395;-61
2022/07/29 06:42:35;;;;;;;;;8.25;8.00;;;;;24.50;33.64;101136.59;4899945;29;45381;-61
2022/07/29 06:45:00;;;;;;;;;10.75;7.00;;;;;24.51;34.13;101131.19;4899582;29;45375;-57
2022/07/29 06:47:25;;;;;;;;;7.25;7.25;;;;;24.50;34.10;101133.97;4899363;29;58303;-59
2022/07/29 06:49:51;;;;;;;;;7.00;5.25;;;;;24.51;34.03;101138.31;4899463;29;45361;-58
2022/07/29 06:52:16;;;;;;;;;7.50;7.50;;;;;24.51;33.45;101143.59;4899404;29;45699;-58
2022/07/29 06:54:47;;;;;;;;;8.75;7.25;;;;;24.50;33.80;101142.75;4899535;29;45539;-58
2022/07/29 06:57:13;;;;;;;;;7.25;7.25;;;;;24.49;33.88;101154.28;4899132;29;47765;-58
2022/07/29 06:59:38;;;;;;;;;10.00;9.00;;;;;24.49;33.94;101153.47;4899148;29;45500;-58
2022/07/29 07:02:04;;;;;;;;;8.00;8.00;;;;;24.50;33.77;101150.69;4898996;29;45356;-58
2022/07/29 07:04:29;;;;;;;;;8.25;7.00;;;;;24.49;33.89;101150.81;4897949;29;45635;-59
2022/07/29 07:06:55;;;;;;;;;10.50;9.00;;;;;24.48;33.54;101149.09;4899021;29;46309;-58
2022/07/29 07:09:21;;;;;;;;;8.75;7.75;;;;;24.49;33.51;101156.09;4898959;29;45361;-58
2022/07/29 07:11:46;;;;;;;;;9.25;8.00;;;;;24.49;34.03;101154.28;4899052;29;45514;-58
2022/07/29 07:14:11;;;;;;;;;2.50;1.75;;;;;24.49;33.79;101154.28;4899099;29;45463;-60
2022/07/29 07:16:37;;;;;;;;;8.25;7.75;;;;;24.50;33.51;101157.81;4898798;29;45515;-59
2022/07/29 07:19:02;;;;;;;;;9.50;9.00;;;;;24.51;33.65;101162.16;4897255;29;45328;-58
2022/07/29 07:21:28;;;;;;;;;7.50;6.00;;;;;24.51;34.13;101160.34;4902155;28;45854;-59
2022/07/29 07:23:53;;;;;;;;;11.00;8.50;;;;;24.50;33.46;101156.00;4918098;28;45625;-59
2022/07/29 07:26:18;;;;;;;;;8.00;7.75;;;;;24.50;34.14;101158.63;4900313;28;51376;-59
2022/07/29 07:28:44;;;;;;;;;2.00;1.00;;;;;24.53;33.60;101161.09;4899526;29;45279;-59
2022/07/29 07:31:10;;;;;;;;;8.00;7.00;;;;;24.51;33.62;101157.69;4898672;29;45735;-58
2022/07/29 07:33:35;;;;;;;;;7.00;7.00;;;;;24.55;34.20;101166.28;4899480;29;45313;-59
2022/07/29 07:36:00;;;;;;;;;10.00;10.00;;;;;24.55;33.97;101160.97;4898514;29;54120;-59
2022/07/29 07:38:26;;;;;;;;;6.00;6.00;;;;;24.58;34.29;101171.38;4897659;29;45418;-59
2022/07/29 07:40:51;;;;;;;;;8.50;8.00;;;;;24.60;34.05;101169.47;4898895;29;45364;-59
2022/07/29 07:43:16;;;;;;;;;8.50;7.00;;;;;24.59;34.49;101169.56;4899258;29;45413;-59
2022/07/29 07:45:42;;;;;;;;;7.25;7.00;;;;;24.62;34.26;101175.53;4899095;29;45282;-60
2022/07/29 07:48:09;;;;;;;;;9.75;7.25;;;;;24.64;34.01;101173.59;4898500;29;45399;-59
2022/07/29 07:50:35;;;;;;;;;7.25;7.00;;;;;24.63;33.88;101169.28;4898927;29;45392;-59
2022/07/29 07:53:01;;;;;;;;;11.00;7.75;;;;;24.65;34.42;101175.31;4898913;29;45493;-59
2022/07/29 07:55:27;;;;;;;;;12.25;8.00;;;;;24.66;34.40;101174.34;4898891;29;46108;-59
2022/07/29 07:57:53;;;;;;;;;8.50;7.50;;;;;24.66;34.56;101177.00;4898839;29;45327;-61
2022/07/29 08:00:19;;;;;;;;;11.00;7.50;;;;;24.67;34.27;101177.88;4898992;29;45259;-58
2022/07/29 08:02:44;;;;;;;;;6.50;6.50;;;;;24.69;33.94;101173.34;4899485;29;45396;-59
2022/07/29 08:05:11;;;;;;;;;8.75;8.00;;;;;24.70;34.51;101177.66;4898687;29;46716;-62
2022/07/29 08:07:37;;;;;;;;;8.00;8.00;;;;;24.70;34.25;101173.22;4898890;29;45868;-63
2022/07/29 08:10:03;;;;;;;;;6.50;6.50;;;;;24.73;33.97;101171.34;4898825;29;45226;-62
2022/07/29 08:12:29;;;;;;;;;8.00;7.00;;;;;24.75;34.03;101174.72;4898735;29;45450;-64
2022/07/29 08:14:55;;;;;;;;;9.00;8.00;;;;;24.76;34.40;101176.41;4898611;29;46453;-58
2022/07/29 08:17:20;;;;;;;;;7.25;7.25;;;;;24.78;33.86;101179.81;4898513;29;45280;-60
2022/07/29 08:19:48;;;;;;;;;0.75;0.00;;;;;24.80;34.22;101172.59;4897660;28;45645;-60
2022/07/29 08:22:13;;;;;;;;;8.75;6.50;;;;;24.80;34.22;101176.13;4898378;28;45750;-59
2022/07/29 08:24:55;;;;;;;;;11.75;8.50;;;;;24.82;33.82;101170.69;4900655;29;46095;-59
2022/07/29 08:27:21;;;;;;;;;7.75;7.75;;;;;24.83;34.02;101175.06;4901758;29;45791;-61
2022/07/29 08:29:47;;;;;;;;;11.00;9.75;;;;;24.85;33.77;101173.16;4900859;29;45408;-60
2022/07/29 08:32:12;;;;;;;;;9.00;9.00;;;;;24.87;33.79;101173.88;4901300;29;45576;-60
2022/07/29 08:34:37;;;;;;;;;10.50;8.00;;;;;24.86;34.14;101182.78;4901557;29;47062;-60
2022/07/29 08:37:03;;;;;;;;;10.75;8.00;;;;;24.89;34.05;101174.63;4901317;29;45283;-59
2022/07/29 08:39:29;;;;;;;;;10.00;8.25;;;;;24.90;33.59;101178.97;4901329;28;45323;-60
2022/07/29 08:41:55;;;;;;;;;9.00;9.00;;;;;24.90;33.90;101178.97;4901015;29;45591;-60
2022/07/29 08:44:24;;;;;;;;;12.50;9.00;;;;;24.92;33.63;101181.50;4900431;29;45610;-59
2022/07/29 08:46:50;;;;;;;;;7.00;7.00;;;;;24.92;33.97;101179.72;4900978;29;45394;-59
2022/07/29 08:49:17;;;;;;;;;7.50;6.25;;;;;24.93;33.50;101175.25;4901047;29;45368;-60
2022/07/29 08:51:43;;;;;;;;;5.50;5.50;;;;;24.94;33.46;101183.13;4900893;29;45475;-59
2022/07/29 08:54:10;;;;;;;;;6.00;6.00;;;;;24.95;33.39;101176.84;4900389;29;46505;-59
2022/07/29 08:56:37;;;;;;;;;7.25;5.25;;;;;24.95;33.08;101184.81;4901112;29;45237;-61
2022/07/29 08:59:06;;;;;;;;;9.00;6.00;;;;;24.95;32.98;101179.50;4899933;29;45313;-58
2022/07/29 09:01:36;;;;;;;;;7.00;5.50;;;;;24.98;33.31;101181.94;4901534;29;45319;-60
2022/07/29 09:04:04;;;;;;;;;4.75;4.75;;;;;24.98;32.93;101176.63;4900605;28;45540;-58
2022/07/29 09:06:33;;;;;;;;;6.00;5.25;;;;;25.00;33.07;101176.53;4901453;29;46007;-59
2022/07/29 09:08:59;;;;;;;;;5.50;5.50;;;;;25.01;32.55;101175.59;4901131;29;45465;-58
2022/07/29 09:11:25;;;;;;;;;7.00;5.25;;;;;25.03;32.67;101175.47;4901116;29;45279;-59
2022/07/29 09:13:50;;;;;;;;;6.00;4.75;;;;;25.04;32.43;101175.34;4900798;29;46376;-60
2022/07/29 09:16:15;;;;;;;;;8.50;5.25;;;;;25.05;32.32;101176.22;4901430;29;45371;-62
2022/07/29 09:18:46;;;;;;;;;4.25;4.25;;;;;25.06;32.62;101172.63;4901045;29;45390;-57
2022/07/29 09:24:08;;;;;;;;;4.50;4.50;;;;;25.07;32.40;101172.50;4900816;29;45471;-59
2022/07/29 09:26:39;;;;;;;;;7.00;6.00;;;;;25.08;32.82;101170.72;4901069;29;45356;-59
2022/07/29 09:29:09;;;;;;;;;6.00;6.00;;;;;25.07;32.75;101163.72;4899716;28;45641;-58
2022/07/29 09:31:37;;;;;;;;;4.25;4.25;;;;;25.08;32.16;101174.19;4900613;28;45454;-59
2022/07/29 09:34:04;;;;;;;;;6.75;5.50;;;;;25.08;32.16;101170.72;4899841;29;45767;-59
2022/07/29 09:36:29;;;;;;;;;4.75;4.75;;;;;25.10;32.69;101166.13;4898994;29;46669;-58
2022/07/29 09:39:02;;;;;;;;;4.75;4.75;;;;;25.09;32.15;101167.94;4900608;29;45331;-59
2022/07/29 09:41:29;;;;;;;;;6.50;4.75;;;;;25.10;32.69;101174.06;4900583;29;45345;-59
2022/07/29 09:43:59;;;;;;;;;4.00;3.50;;;;;25.11;32.65;101178.44;4899964;29;46700;-60
2022/07/29 09:46:25;;;;;;;;;4.00;4.00;;;;;25.11;32.62;101168.69;4898852;29;45360;-60
2022/07/29 09:49:08;;;;;;;;;6.50;4.25;;;;;25.12;32.40;101172.16;4900310;29;45808;-60
2022/07/29 09:51:33;;;;;;;;;3.75;3.75;;;;;25.15;32.65;101169.31;4900352;29;45697;-63
2022/07/29 09:54:00;;;;;;;;;6.50;5.00;;;;;25.16;32.44;101168.38;4899404;29;46352;-61
2022/07/29 09:56:45;;;;;;;;;6.00;5.00;;;;;25.19;32.08;101172.59;4899836;29;45704;-62
2022/07/29 09:59:11;;;;;;;;;7.50;5.75;;;;;25.18;32.13;101171.75;4899139;29;45407;-61
2022/07/29 10:01:37;;;;;;;;;6.00;6.00;;;;;25.18;32.78;101177.06;4900503;29;45169;-65
2022/07/29 10:04:03;;;;;;;;;5.25;5.25;;;;;25.18;32.16;101177.06;4899423;28;45487;-60
2022/07/29 10:06:28;;;;;;;;;5.75;4.50;;;;;25.19;32.78;101178.72;4899954;29;45616;-63
2022/07/29 10:08:54;;;;;;;;;6.75;5.75;;;;;25.21;32.66;101176.81;4900515;29;45266;-60
2022/07/29 10:11:19;;;;;;;;;5.50;5.50;;;;;25.21;32.13;101168.88;4900564;29;45605;-60
2022/07/29 10:13:47;;;;;;;;;5.75;5.75;;;;;25.22;32.79;101173.22;4899857;29;46498;-59
2022/07/29 10:16:14;;;;;;;;;4.00;4.00;;;;;25.23;32.91;101169.63;4897381;29;45805;-59
2022/07/29 10:18:46;;;;;;;;;5.00;5.00;;;;;25.23;32.40;101172.28;4900485;29;45368;-59
2022/07/29 10:21:13;;;;;;;;;5.75;5.00;;;;;25.24;33.05;101170.47;4899178;29;45434;-60
2022/07/29 10:23:38;;;;;;;;;8.00;5.25;;;;;25.24;32.37;101181.09;4900058;29;45404;-59
2022/07/29 10:26:04;;;;;;;;;5.00;5.00;;;;;25.26;32.47;101171.19;4899766;29;45967;-60
2022/07/29 10:28:31;;;;;;;;;6.75;5.00;;;;;25.27;32.78;101178.19;4900232;29;45223;-60
2022/07/29 10:31:08;;;;;;;;;7.00;4.75;;;;;25.28;32.50;101171.94;4900179;29;45289;-59
2022/07/29 10:33:43;;;;;;;;;4.00;4.00;;;;;25.28;32.83;101175.47;4900085;29;46350;-60
2022/07/29 10:36:20;;;;;;;;;5.75;5.00;;;;;25.28;32.63;101172.81;4899826;29;45307;-60
2022/07/29 10:38:53;;;;;;;;;5.25;5.00;;;;;25.29;32.87;101171.84;4900261;29;45403;-60
2022/07/29 10:41:58;;;;;;;;;4.25;4.00;;;;;25.29;32.26;101171.84;4900428;29;45441;-60
2022/07/29 10:44:27;;;;;;;;;6.25;5.25;;;;;25.29;32.55;101174.50;4899819;29;45530;-60
2022/07/29 10:46:53;;;;;;;;;7.50;6.00;;;;;25.28;32.40;101166.63;4899431;29;45425;-60
2022/07/29 10:49:25;;;;;;;;;4.25;4.25;;;;;25.28;32.28;101175.47;4900017;29;45328;-60
2022/07/29 10:52:04;;;;;;;;;8.75;5.25;;;;;25.30;32.56;101170.03;4900052;29;45534;-60
2022/07/29 10:54:36;;;;;;;;;7.00;4.00;;;;;25.32;32.90;101178.75;4899784;29;46408;-60
2022/07/29 10:57:27;;;;;;;;;6.00;6.00;;;;;25.32;32.20;101174.28;4899648;28;46009;-60
2022/07/29 11:00:01;;;;;;;;;6.00;6.00;;;;;25.34;32.61;101175.97;4899930;29;45448;-60
2022/07/29 11:02:35;;;;;;;;;5.00;5.00;;;;;25.34;32.23;101174.19;4900049;29;45523;-60
2022/07/29 11:05:01;;;;;;;;;5.00;5.00;;;;;25.37;32.73;101170.44;4897935;29;47703;-60
2022/07/29 11:07:29;;;;;;;;;5.50;5.50;;;;;25.36;32.79;101166.09;4899629;29;45259;-60
2022/07/29 11:10:12;;;;;;;;;7.00;5.00;;;;;25.37;32.34;101175.75;4899696;29;45499;-60
2022/07/29 11:12:37;;;;;;;;;5.75;5.50;;;;;25.37;32.31;101168.63;4899574;29;45514;-60
2022/07/29 11:15:05;;;;;;;;;7.00;6.00;;;;;25.37;32.38;101167.81;4899276;29;46429;-60
2022/07/29 11:17:49;;;;;;;;;6.25;4.00;;;;;25.38;32.65;101172.16;4899537;29;46447;-61
2022/07/29 11:20:41;;;;;;;;;6.00;5.50;;;;;25.39;32.49;101171.19;4899476;29;45327;-61
2022/07/29 11:23:31;;;;;;;;;8.00;4.75;;;;;25.40;32.58;101175.56;4899417;29;45631;-60
2022/07/29 11:26:25;;;;;;;;;6.50;5.50;;;;;25.43;32.30;101172.69;4899033;29;46124;-60
2022/07/29 11:28:53;;;;;;;;;5.00;5.00;;;;;25.44;32.34;101182.34;4899530;29;45674;-60
2022/07/29 11:31:39;;;;;;;;;9.75;6.00;;;;;25.45;32.51;101179.59;4899401;29;45341;-60
2022/07/29 11:34:24;;;;;;;;;6.00;5.00;;;;;25.47;32.37;101163.56;4899463;29;45499;-60